sensor_id;sensor_type;location;lat;lon;timestamp;P1;durP1;ratioP1;P2;durP2;ratioP2
47161;SDS011;32921;53.256;8.198;2022-08-19T00:01:23;44.45;;;23.77;;
47161;SDS011;32921;53.256;8.198;2022-08-19T00:03:50;46.80;;;23.55;;
47161;SDS011;32921;53.256;8.198;2022-08-19T00:06:16;35.08;;;20.23;;
47161;SDS011;32921;53.256;8.198;2022-08-19T00:08:41;50.10;;;23.92;;
47161;SDS011;32921;53.256;8.198;2022-08-19T00:11:08;46.10;;;22.98;;
47161;SDS011;32921;53.256;8.198;2022-08-19T00:13:34;47.30;;;23.83;;
47161;SDS011;32921;53.256;8.198;2022-08-19T00:16:01;41.00;;;22.55;;
47161;SDS011;32921;53.256;8.198;2022-08-19T00:18:28;45.65;;;23.27;;
47161;SDS011;32921;53.256;8.198;2022-08-19T00:20:53;47.47;;;23.00;;
47161;SDS011;32921;53.256;8.198;2022-08-19T00:23:19;47.72;;;23.60;;
47161;SDS011;32921;53.256;8.198;2022-08-19T00:25:45;43.67;;;23.67;;
47161;SDS011;32921;53.256;8.198;2022-08-19T00:28:10;34.97;;;20.23;;
47161;SDS011;32921;53.256;8.198;2022-08-19T00:30:36;43.33;;;23.27;;
47161;SDS011;32921;53.256;8.198;2022-08-19T00:33:02;46.50;;;24.02;;
47161;SDS011;32921;53.256;8.198;2022-08-19T00:35:27;47.45;;;22.98;;
47161;SDS011;32921;53.256;8.198;2022-08-19T00:37:53;44.72;;;23.98;;
47161;SDS011;32921;53.256;8.198;2022-08-19T00:40:19;46.58;;;23.55;;
47161;SDS011;32921;53.256;8.198;2022-08-19T00:42:45;44.58;;;22.75;;
47161;SDS011;32921;53.256;8.198;2022-08-19T00:45:13;44.95;;;22.70;;
47161;SDS011;32921;53.256;8.198;2022-08-19T00:47:41;38.28;;;22.00;;
47161;SDS011;32921;53.256;8.198;2022-08-19T00:50:08;44.58;;;23.02;;
47161;SDS011;32921;53.256;8.198;2022-08-19T00:52:37;42.85;;;21.60;;
47161;SDS011;32921;53.256;8.198;2022-08-19T00:57:38;37.55;;;21.23;;
47161;SDS011;32921;53.256;8.198;2022-08-19T01:03:07;42.40;;;22.20;;
47161;SDS011;32921;53.256;8.198;2022-08-19T01:08:02;48.90;;;23.70;;
47161;SDS011;32921;53.256;8.198;2022-08-19T01:10:30;43.85;;;22.92;;
47161;SDS011;32921;53.256;8.198;2022-08-19T01:12:58;43.42;;;23.15;;
47161;SDS011;32921;53.256;8.198;2022-08-19T01:15:26;42.47;;;20.95;;
47161;SDS011;32921;53.256;8.198;2022-08-19T01:17:56;37.53;;;21.85;;
47161;SDS011;32921;53.256;8.198;2022-08-19T01:20:24;38.05;;;20.85;;
47161;SDS011;32921;53.256;8.198;2022-08-19T01:22:55;38.53;;;20.85;;
47161;SDS011;32921;53.256;8.198;2022-08-19T01:25:34;36.33;;;20.83;;
47161;SDS011;32921;53.256;8.198;2022-08-19T01:28:04;41.25;;;22.23;;
47161;SDS011;32921;53.256;8.198;2022-08-19T01:30:31;36.78;;;20.90;;
47161;SDS011;32921;53.256;8.198;2022-08-19T01:32:58;35.95;;;22.17;;
47161;SDS011;32921;53.256;8.198;2022-08-19T01:35:25;37.30;;;22.35;;
47161;SDS011;32921;53.256;8.198;2022-08-19T01:37:55;43.53;;;24.17;;
47161;SDS011;32921;53.256;8.198;2022-08-19T01:40:23;42.20;;;23.60;;
47161;SDS011;32921;53.256;8.198;2022-08-19T01:42:52;50.50;;;24.08;;
47161;SDS011;32921;53.256;8.198;2022-08-19T01:45:19;45.00;;;23.67;;
47161;SDS011;32921;53.256;8.198;2022-08-19T01:47:46;47.58;;;23.83;;
47161;SDS011;32921;53.256;8.198;2022-08-19T01:50:13;38.45;;;22.25;;
47161;SDS011;32921;53.256;8.198;2022-08-19T01:52:40;37.10;;;21.40;;
47161;SDS011;32921;53.256;8.198;2022-08-19T01:55:08;41.05;;;21.83;;
47161;SDS011;32921;53.256;8.198;2022-08-19T01:57:36;46.20;;;22.35;;
47161;SDS011;32921;53.256;8.198;2022-08-19T02:00:05;43.35;;;21.65;;
47161;SDS011;32921;53.256;8.198;2022-08-19T02:02:33;34.50;;;20.73;;
47161;SDS011;32921;53.256;8.198;2022-08-19T02:04:59;43.58;;;22.08;;
47161;SDS011;32921;53.256;8.198;2022-08-19T02:07:25;44.78;;;22.45;;
47161;SDS011;32921;53.256;8.198;2022-08-19T02:09:53;47.65;;;24.02;;
47161;SDS011;32921;53.256;8.198;2022-08-19T02:12:20;46.78;;;21.85;;
47161;SDS011;32921;53.256;8.198;2022-08-19T02:14:45;40.20;;;20.65;;
47161;SDS011;32921;53.256;8.198;2022-08-19T02:17:11;47.10;;;21.65;;
47161;SDS011;32921;53.256;8.198;2022-08-19T02:19:37;53.92;;;24.08;;
47161;SDS011;32921;53.256;8.198;2022-08-19T02:22:02;58.17;;;24.98;;
47161;SDS011;32921;53.256;8.198;2022-08-19T02:24:28;58.42;;;25.67;;
47161;SDS011;32921;53.256;8.198;2022-08-19T02:26:54;51.90;;;24.73;;
47161;SDS011;32921;53.256;8.198;2022-08-19T02:29:20;68.90;;;27.45;;
47161;SDS011;32921;53.256;8.198;2022-08-19T02:31:46;55.35;;;25.08;;
47161;SDS011;32921;53.256;8.198;2022-08-19T02:34:11;53.97;;;25.42;;
47161;SDS011;32921;53.256;8.198;2022-08-19T02:36:37;62.05;;;26.48;;
47161;SDS011;32921;53.256;8.198;2022-08-19T02:39:03;59.80;;;25.23;;
47161;SDS011;32921;53.256;8.198;2022-08-19T02:41:30;65.40;;;25.30;;
47161;SDS011;32921;53.256;8.198;2022-08-19T02:43:58;59.47;;;25.13;;
47161;SDS011;32921;53.256;8.198;2022-08-19T02:46:27;54.15;;;23.45;;
47161;SDS011;32921;53.256;8.198;2022-08-19T02:48:56;50.42;;;22.95;;
47161;SDS011;32921;53.256;8.198;2022-08-19T02:51:46;46.42;;;22.40;;
47161;SDS011;32921;53.256;8.198;2022-08-19T02:54:12;48.33;;;23.08;;
47161;SDS011;32921;53.256;8.198;2022-08-19T02:56:40;45.80;;;21.73;;
47161;SDS011;32921;53.256;8.198;2022-08-19T02:59:07;53.22;;;23.48;;
47161;SDS011;32921;53.256;8.198;2022-08-19T03:01:36;49.28;;;22.00;;
47161;SDS011;32921;53.256;8.198;2022-08-19T03:04:05;51.78;;;22.92;;
47161;SDS011;32921;53.256;8.198;2022-08-19T03:06:32;59.92;;;24.85;;
47161;SDS011;32921;53.256;8.198;2022-08-19T03:09:01;61.08;;;24.60;;
47161;SDS011;32921;53.256;8.198;2022-08-19T03:11:28;68.10;;;26.02;;
47161;SDS011;32921;53.256;8.198;2022-08-19T03:13:55;65.28;;;25.75;;
47161;SDS011;32921;53.256;8.198;2022-08-19T03:16:23;60.17;;;25.25;;
47161;SDS011;32921;53.256;8.198;2022-08-19T03:18:50;56.78;;;24.48;;
47161;SDS011;32921;53.256;8.198;2022-08-19T03:21:18;55.13;;;24.05;;
47161;SDS011;32921;53.256;8.198;2022-08-19T03:23:45;59.15;;;24.73;;
47161;SDS011;32921;53.256;8.198;2022-08-19T03:26:11;55.45;;;23.35;;
47161;SDS011;32921;53.256;8.198;2022-08-19T03:28:39;64.25;;;24.40;;
47161;SDS011;32921;53.256;8.198;2022-08-19T03:31:15;56.08;;;23.92;;
47161;SDS011;32921;53.256;8.198;2022-08-19T03:33:42;64.90;;;23.80;;
47161;SDS011;32921;53.256;8.198;2022-08-19T03:38:40;59.00;;;23.27;;
47161;SDS011;32921;53.256;8.198;2022-08-19T03:41:24;48.70;;;22.85;;
47161;SDS011;32921;53.256;8.198;2022-08-19T03:43:58;61.20;;;24.13;;
47161;SDS011;32921;53.256;8.198;2022-08-19T03:46:29;66.68;;;25.25;;
47161;SDS011;32921;53.256;8.198;2022-08-19T03:48:57;61.17;;;25.10;;
47161;SDS011;32921;53.256;8.198;2022-08-19T03:51:25;68.32;;;25.17;;
47161;SDS011;32921;53.256;8.198;2022-08-19T03:53:56;53.38;;;22.33;;
47161;SDS011;32921;53.256;8.198;2022-08-19T03:56:24;55.92;;;23.42;;
47161;SDS011;32921;53.256;8.198;2022-08-19T03:58:51;48.90;;;21.10;;
47161;SDS011;32921;53.256;8.198;2022-08-19T04:01:18;51.67;;;22.65;;
47161;SDS011;32921;53.256;8.198;2022-08-19T04:03:45;55.08;;;22.40;;
47161;SDS011;32921;53.256;8.198;2022-08-19T04:06:12;50.65;;;22.38;;
47161;SDS011;32921;53.256;8.198;2022-08-19T04:08:40;53.42;;;21.75;;
47161;SDS011;32921;53.256;8.198;2022-08-19T04:11:08;55.28;;;22.20;;
47161;SDS011;32921;53.256;8.198;2022-08-19T04:13:35;47.13;;;20.77;;
47161;SDS011;32921;53.256;8.198;2022-08-19T04:16:00;51.45;;;20.88;;
47161;SDS011;32921;53.256;8.198;2022-08-19T04:18:26;41.63;;;19.27;;
47161;SDS011;32921;53.256;8.198;2022-08-19T04:20:54;47.25;;;20.63;;
47161;SDS011;32921;53.256;8.198;2022-08-19T04:23:20;50.30;;;20.10;;
47161;SDS011;32921;53.256;8.198;2022-08-19T04:25:46;42.58;;;19.48;;
47161;SDS011;32921;53.256;8.198;2022-08-19T04:28:12;38.45;;;18.38;;
47161;SDS011;32921;53.256;8.198;2022-08-19T04:30:42;36.22;;;17.98;;
47161;SDS011;32921;53.256;8.198;2022-08-19T04:33:10;36.38;;;18.25;;
47161;SDS011;32921;53.256;8.198;2022-08-19T04:35:40;36.17;;;17.60;;
47161;SDS011;32921;53.256;8.198;2022-08-19T04:38:08;38.10;;;19.10;;
47161;SDS011;32921;53.256;8.198;2022-08-19T04:40:34;36.05;;;17.85;;
47161;SDS011;32921;53.256;8.198;2022-08-19T04:43:27;33.80;;;17.10;;
47161;SDS011;32921;53.256;8.198;2022-08-19T04:45:53;35.22;;;17.60;;
47161;SDS011;32921;53.256;8.198;2022-08-19T04:48:19;31.95;;;16.70;;
47161;SDS011;32921;53.256;8.198;2022-08-19T04:50:51;33.47;;;17.75;;
47161;SDS011;32921;53.256;8.198;2022-08-19T04:53:22;32.97;;;17.13;;
47161;SDS011;32921;53.256;8.198;2022-08-19T04:55:51;30.25;;;17.35;;
47161;SDS011;32921;53.256;8.198;2022-08-19T04:58:17;33.97;;;17.92;;
47161;SDS011;32921;53.256;8.198;2022-08-19T05:00:43;34.20;;;18.23;;
47161;SDS011;32921;53.256;8.198;2022-08-19T05:03:08;34.80;;;18.40;;
47161;SDS011;32921;53.256;8.198;2022-08-19T05:05:38;34.83;;;18.70;;
47161;SDS011;32921;53.256;8.198;2022-08-19T05:08:06;39.65;;;20.50;;
47161;SDS011;32921;53.256;8.198;2022-08-19T05:10:34;33.42;;;19.30;;
47161;SDS011;32921;53.256;8.198;2022-08-19T05:13:01;35.67;;;19.90;;
47161;SDS011;32921;53.256;8.198;2022-08-19T05:15:26;35.72;;;19.00;;
47161;SDS011;32921;53.256;8.198;2022-08-19T05:17:52;34.13;;;18.85;;
47161;SDS011;32921;53.256;8.198;2022-08-19T05:20:39;36.13;;;19.33;;
47161;SDS011;32921;53.256;8.198;2022-08-19T05:23:23;34.35;;;19.25;;
47161;SDS011;32921;53.256;8.198;2022-08-19T05:25:52;35.25;;;19.00;;
47161;SDS011;32921;53.256;8.198;2022-08-19T05:28:18;31.25;;;17.35;;
47161;SDS011;32921;53.256;8.198;2022-08-19T05:30:45;32.38;;;18.00;;
47161;SDS011;32921;53.256;8.198;2022-08-19T05:33:11;30.13;;;17.50;;
47161;SDS011;32921;53.256;8.198;2022-08-19T05:35:40;27.67;;;17.20;;
47161;SDS011;32921;53.256;8.198;2022-08-19T05:38:06;25.85;;;15.75;;
47161;SDS011;32921;53.256;8.198;2022-08-19T05:40:36;28.15;;;16.73;;
47161;SDS011;32921;53.256;8.198;2022-08-19T05:43:03;28.73;;;16.13;;
47161;SDS011;32921;53.256;8.198;2022-08-19T05:45:30;23.35;;;16.10;;
47161;SDS011;32921;53.256;8.198;2022-08-19T05:47:55;22.25;;;15.10;;
47161;SDS011;32921;53.256;8.198;2022-08-19T05:50:21;24.17;;;15.00;;
47161;SDS011;32921;53.256;8.198;2022-08-19T05:52:47;25.80;;;16.45;;
47161;SDS011;32921;53.256;8.198;2022-08-19T05:55:20;22.30;;;15.40;;
47161;SDS011;32921;53.256;8.198;2022-08-19T05:57:46;24.75;;;16.17;;
47161;SDS011;32921;53.256;8.198;2022-08-19T06:00:12;23.67;;;16.00;;
47161;SDS011;32921;53.256;8.198;2022-08-19T06:02:39;23.23;;;15.25;;
47161;SDS011;32921;53.256;8.198;2022-08-19T06:05:05;21.27;;;14.40;;
47161;SDS011;32921;53.256;8.198;2022-08-19T06:07:37;21.92;;;15.18;;
47161;SDS011;32921;53.256;8.198;2022-08-19T06:10:04;21.60;;;15.82;;
47161;SDS011;32921;53.256;8.198;2022-08-19T06:12:32;20.65;;;14.23;;
47161;SDS011;32921;53.256;8.198;2022-08-19T06:14:59;21.58;;;14.23;;
47161;SDS011;32921;53.256;8.198;2022-08-19T06:17:27;20.60;;;14.57;;
47161;SDS011;32921;53.256;8.198;2022-08-19T06:19:54;17.73;;;13.60;;
47161;SDS011;32921;53.256;8.198;2022-08-19T06:22:20;20.73;;;14.90;;
47161;SDS011;32921;53.256;8.198;2022-08-19T06:24:46;21.50;;;11.77;;
47161;SDS011;32921;53.256;8.198;2022-08-19T06:27:11;14.43;;;11.40;;
47161;SDS011;32921;53.256;8.198;2022-08-19T06:29:37;14.85;;;10.45;;
47161;SDS011;32921;53.256;8.198;2022-08-19T06:32:03;11.77;;;9.18;;
47161;SDS011;32921;53.256;8.198;2022-08-19T06:34:30;13.07;;;9.50;;
47161;SDS011;32921;53.256;8.198;2022-08-19T06:36:57;11.18;;;8.68;;
47161;SDS011;32921;53.256;8.198;2022-08-19T06:39:26;10.75;;;8.00;;
47161;SDS011;32921;53.256;8.198;2022-08-19T06:41:55;13.23;;;7.63;;
47161;SDS011;32921;53.256;8.198;2022-08-19T06:44:23;9.45;;;7.07;;
47161;SDS011;32921;53.256;8.198;2022-08-19T06:46:51;13.85;;;6.68;;
47161;SDS011;32921;53.256;8.198;2022-08-19T06:49:17;9.70;;;6.82;;
47161;SDS011;32921;53.256;8.198;2022-08-19T06:51:45;9.65;;;5.38;;
47161;SDS011;32921;53.256;8.198;2022-08-19T06:54:15;10.63;;;6.10;;
47161;SDS011;32921;53.256;8.198;2022-08-19T06:56:42;7.45;;;4.22;;
47161;SDS011;32921;53.256;8.198;2022-08-19T06:59:11;6.32;;;3.10;;
47161;SDS011;32921;53.256;8.198;2022-08-19T07:01:48;5.70;;;2.60;;
47161;SDS011;32921;53.256;8.198;2022-08-19T07:04:17;6.70;;;2.72;;
47161;SDS011;32921;53.256;8.198;2022-08-19T07:07:00;3.88;;;2.03;;
47161;SDS011;32921;53.256;8.198;2022-08-19T07:09:28;5.13;;;2.20;;
47161;SDS011;32921;53.256;8.198;2022-08-19T07:11:54;5.00;;;2.03;;
47161;SDS011;32921;53.256;8.198;2022-08-19T07:14:21;4.63;;;1.65;;
47161;SDS011;32921;53.256;8.198;2022-08-19T07:16:49;5.28;;;1.80;;
47161;SDS011;32921;53.256;8.198;2022-08-19T07:19:17;4.57;;;1.90;;
47161;SDS011;32921;53.256;8.198;2022-08-19T07:21:44;6.07;;;1.67;;
47161;SDS011;32921;53.256;8.198;2022-08-19T07:24:11;3.97;;;1.75;;
47161;SDS011;32921;53.256;8.198;2022-08-19T07:26:39;3.92;;;1.80;;
47161;SDS011;32921;53.256;8.198;2022-08-19T07:29:06;4.53;;;1.67;;
47161;SDS011;32921;53.256;8.198;2022-08-19T07:31:33;3.30;;;1.52;;
47161;SDS011;32921;53.256;8.198;2022-08-19T07:34:01;5.18;;;1.67;;
47161;SDS011;32921;53.256;8.198;2022-08-19T07:36:32;3.83;;;1.70;;
47161;SDS011;32921;53.256;8.198;2022-08-19T07:39:00;4.65;;;1.92;;
47161;SDS011;32921;53.256;8.198;2022-08-19T07:41:28;4.47;;;1.60;;
47161;SDS011;32921;53.256;8.198;2022-08-19T07:43:55;4.75;;;1.60;;
47161;SDS011;32921;53.256;8.198;2022-08-19T07:46:21;4.47;;;1.90;;
47161;SDS011;32921;53.256;8.198;2022-08-19T07:48:47;4.80;;;1.92;;
47161;SDS011;32921;53.256;8.198;2022-08-19T07:51:16;4.25;;;1.65;;
47161;SDS011;32921;53.256;8.198;2022-08-19T07:53:44;3.42;;;1.83;;
47161;SDS011;32921;53.256;8.198;2022-08-19T07:56:11;4.35;;;1.92;;
47161;SDS011;32921;53.256;8.198;2022-08-19T07:58:43;4.35;;;1.60;;
47161;SDS011;32921;53.256;8.198;2022-08-19T08:01:12;6.28;;;1.50;;
47161;SDS011;32921;53.256;8.198;2022-08-19T08:03:40;3.95;;;1.60;;
47161;SDS011;32921;53.256;8.198;2022-08-19T08:06:25;4.40;;;1.70;;
47161;SDS011;32921;53.256;8.198;2022-08-19T08:09:10;3.58;;;1.63;;
47161;SDS011;32921;53.256;8.198;2022-08-19T08:11:41;4.32;;;1.52;;
47161;SDS011;32921;53.256;8.198;2022-08-19T08:14:14;5.70;;;1.95;;
47161;SDS011;32921;53.256;8.198;2022-08-19T08:16:42;4.93;;;1.88;;
47161;SDS011;32921;53.256;8.198;2022-08-19T08:19:09;5.20;;;1.50;;
47161;SDS011;32921;53.256;8.198;2022-08-19T08:21:35;5.07;;;1.70;;
47161;SDS011;32921;53.256;8.198;2022-08-19T08:24:01;3.70;;;1.77;;
47161;SDS011;32921;53.256;8.198;2022-08-19T08:26:27;2.92;;;1.55;;
47161;SDS011;32921;53.256;8.198;2022-08-19T08:28:53;4.75;;;1.80;;
47161;SDS011;32921;53.256;8.198;2022-08-19T08:31:19;3.30;;;1.67;;
47161;SDS011;32921;53.256;8.198;2022-08-19T08:33:45;6.28;;;1.80;;
47161;SDS011;32921;53.256;8.198;2022-08-19T08:36:12;4.20;;;1.92;;
47161;SDS011;32921;53.256;8.198;2022-08-19T08:38:39;5.10;;;2.00;;
47161;SDS011;32921;53.256;8.198;2022-08-19T08:41:52;3.95;;;2.28;;
47161;SDS011;32921;53.256;8.198;2022-08-19T08:43:57;6.18;;;1.92;;
47161;SDS011;32921;53.256;8.198;2022-08-19T08:49:34;5.53;;;2.40;;
47161;SDS011;32921;53.256;8.198;2022-08-19T08:52:23;3.78;;;2.60;;
47161;SDS011;32921;53.256;8.198;2022-08-19T08:54:55;5.45;;;2.42;;
47161;SDS011;32921;53.256;8.198;2022-08-19T08:57:25;5.00;;;1.95;;
47161;SDS011;32921;53.256;8.198;2022-08-19T09:00:00;6.35;;;1.92;;
47161;SDS011;32921;53.256;8.198;2022-08-19T09:02:30;5.85;;;2.03;;
47161;SDS011;32921;53.256;8.198;2022-08-19T09:04:56;5.35;;;2.03;;
47161;SDS011;32921;53.256;8.198;2022-08-19T09:10:19;4.55;;;2.10;;
47161;SDS011;32921;53.256;8.198;2022-08-19T09:15:48;4.25;;;1.73;;
47161;SDS011;32921;53.256;8.198;2022-08-19T09:18:23;3.45;;;1.80;;
47161;SDS011;32921;53.256;8.198;2022-08-19T09:20:48;5.90;;;1.83;;
47161;SDS011;32921;53.256;8.198;2022-08-19T09:23:14;4.68;;;2.05;;
47161;SDS011;32921;53.256;8.198;2022-08-19T09:25:40;7.57;;;1.70;;
47161;SDS011;32921;53.256;8.198;2022-08-19T09:28:06;3.65;;;1.50;;
47161;SDS011;32921;53.256;8.198;2022-08-19T09:30:33;5.18;;;1.90;;
47161;SDS011;32921;53.256;8.198;2022-08-19T09:33:06;8.27;;;1.95;;
47161;SDS011;32921;53.256;8.198;2022-08-19T09:35:32;5.00;;;1.52;;
47161;SDS011;32921;53.256;8.198;2022-08-19T09:37:58;3.60;;;1.63;;
47161;SDS011;32921;53.256;8.198;2022-08-19T09:40:28;5.68;;;1.48;;
47161;SDS011;32921;53.256;8.198;2022-08-19T09:42:55;3.20;;;1.40;;
47161;SDS011;32921;53.256;8.198;2022-08-19T09:45:22;3.67;;;1.60;;
47161;SDS011;32921;53.256;8.198;2022-08-19T09:47:51;6.20;;;1.52;;
47161;SDS011;32921;53.256;8.198;2022-08-19T09:50:17;3.05;;;1.30;;
47161;SDS011;32921;53.256;8.198;2022-08-19T09:52:43;3.35;;;1.48;;
47161;SDS011;32921;53.256;8.198;2022-08-19T09:55:10;3.85;;;1.48;;
47161;SDS011;32921;53.256;8.198;2022-08-19T09:57:36;3.53;;;1.80;;
47161;SDS011;32921;53.256;8.198;2022-08-19T10:00:03;6.03;;;1.30;;
47161;SDS011;32921;53.256;8.198;2022-08-19T10:02:30;6.18;;;1.85;;
47161;SDS011;32921;53.256;8.198;2022-08-19T10:04:56;3.90;;;1.63;;
47161;SDS011;32921;53.256;8.198;2022-08-19T10:07:40;3.05;;;1.40;;
47161;SDS011;32921;53.256;8.198;2022-08-19T10:10:06;3.55;;;1.40;;
47161;SDS011;32921;53.256;8.198;2022-08-19T10:12:34;5.20;;;1.65;;
47161;SDS011;32921;53.256;8.198;2022-08-19T10:15:00;3.45;;;1.60;;
47161;SDS011;32921;53.256;8.198;2022-08-19T10:17:26;5.75;;;1.95;;
47161;SDS011;32921;53.256;8.198;2022-08-19T10:19:52;5.03;;;1.35;;
47161;SDS011;32921;53.256;8.198;2022-08-19T10:22:18;4.50;;;1.90;;
47161;SDS011;32921;53.256;8.198;2022-08-19T10:24:45;4.85;;;1.90;;
47161;SDS011;32921;53.256;8.198;2022-08-19T10:27:11;4.50;;;1.95;;
47161;SDS011;32921;53.256;8.198;2022-08-19T10:29:38;3.20;;;1.90;;
47161;SDS011;32921;53.256;8.198;2022-08-19T10:32:05;5.45;;;1.70;;
47161;SDS011;32921;53.256;8.198;2022-08-19T10:34:33;4.53;;;1.50;;
47161;SDS011;32921;53.256;8.198;2022-08-19T10:37:00;4.25;;;1.33;;
47161;SDS011;32921;53.256;8.198;2022-08-19T10:39:26;4.75;;;1.20;;
47161;SDS011;32921;53.256;8.198;2022-08-19T10:41:56;4.30;;;1.60;;
47161;SDS011;32921;53.256;8.198;2022-08-19T10:44:22;4.90;;;1.40;;
47161;SDS011;32921;53.256;8.198;2022-08-19T10:46:49;2.25;;;1.13;;
47161;SDS011;32921;53.256;8.198;2022-08-19T10:49:14;3.10;;;1.23;;
47161;SDS011;32921;53.256;8.198;2022-08-19T10:51:40;4.05;;;1.30;;
47161;SDS011;32921;53.256;8.198;2022-08-19T10:54:25;3.28;;;1.08;;
47161;SDS011;32921;53.256;8.198;2022-08-19T10:57:12;4.32;;;1.60;;
47161;SDS011;32921;53.256;8.198;2022-08-19T10:59:37;3.58;;;1.20;;
47161;SDS011;32921;53.256;8.198;2022-08-19T11:02:05;4.00;;;1.50;;
47161;SDS011;32921;53.256;8.198;2022-08-19T11:04:34;5.43;;;1.38;;
47161;SDS011;32921;53.256;8.198;2022-08-19T11:07:00;2.85;;;1.40;;
47161;SDS011;32921;53.256;8.198;2022-08-19T11:09:27;6.55;;;1.50;;
47161;SDS011;32921;53.256;8.198;2022-08-19T11:11:53;4.65;;;1.40;;
47161;SDS011;32921;53.256;8.198;2022-08-19T11:14:19;3.53;;;1.52;;
47161;SDS011;32921;53.256;8.198;2022-08-19T11:16:46;4.50;;;1.40;;
47161;SDS011;32921;53.256;8.198;2022-08-19T11:19:13;3.35;;;1.58;;
47161;SDS011;32921;53.256;8.198;2022-08-19T11:21:42;4.07;;;1.45;;
47161;SDS011;32921;53.256;8.198;2022-08-19T11:24:10;3.28;;;1.40;;
47161;SDS011;32921;53.256;8.198;2022-08-19T11:26:38;3.70;;;1.50;;
47161;SDS011;32921;53.256;8.198;2022-08-19T11:29:07;5.13;;;1.38;;
47161;SDS011;32921;53.256;8.198;2022-08-19T11:31:36;3.63;;;1.50;;
47161;SDS011;32921;53.256;8.198;2022-08-19T11:34:04;3.45;;;1.40;;
47161;SDS011;32921;53.256;8.198;2022-08-19T11:36:32;4.53;;;1.30;;
47161;SDS011;32921;53.256;8.198;2022-08-19T11:38:59;4.65;;;1.42;;
47161;SDS011;32921;53.256;8.198;2022-08-19T11:41:25;4.55;;;1.25;;
47161;SDS011;32921;53.256;8.198;2022-08-19T11:43:52;2.22;;;1.10;;
47161;SDS011;32921;53.256;8.198;2022-08-19T11:46:21;4.03;;;1.23;;
47161;SDS011;32921;53.256;8.198;2022-08-19T11:48:49;6.10;;;1.08;;
47161;SDS011;32921;53.256;8.198;2022-08-19T11:51:17;4.47;;;1.10;;
47161;SDS011;32921;53.256;8.198;2022-08-19T11:53:44;3.92;;;1.13;;
47161;SDS011;32921;53.256;8.198;2022-08-19T11:56:10;3.72;;;1.17;;
47161;SDS011;32921;53.256;8.198;2022-08-19T11:58:36;3.97;;;1.35;;
47161;SDS011;32921;53.256;8.198;2022-08-19T12:01:09;2.47;;;1.10;;
47161;SDS011;32921;53.256;8.198;2022-08-19T12:03:36;3.33;;;1.40;;
47161;SDS011;32921;53.256;8.198;2022-08-19T12:06:07;5.30;;;1.25;;
47161;SDS011;32921;53.256;8.198;2022-08-19T12:08:37;4.47;;;1.23;;
47161;SDS011;32921;53.256;8.198;2022-08-19T12:11:03;3.17;;;1.30;;
47161;SDS011;32921;53.256;8.198;2022-08-19T12:13:30;2.63;;;1.20;;
47161;SDS011;32921;53.256;8.198;2022-08-19T12:15:56;2.92;;;1.33;;
47161;SDS011;32921;53.256;8.198;2022-08-19T12:18:23;3.70;;;1.48;;
47161;SDS011;32921;53.256;8.198;2022-08-19T12:20:50;4.18;;;1.48;;
47161;SDS011;32921;53.256;8.198;2022-08-19T12:23:16;4.55;;;1.20;;
47161;SDS011;32921;53.256;8.198;2022-08-19T12:25:46;1.85;;;1.00;;
47161;SDS011;32921;53.256;8.198;2022-08-19T12:28:16;2.15;;;1.08;;
47161;SDS011;32921;53.256;8.198;2022-08-19T12:33:12;3.80;;;1.13;;
47161;SDS011;32921;53.256;8.198;2022-08-19T12:35:41;2.47;;;1.00;;
47161;SDS011;32921;53.256;8.198;2022-08-19T12:38:09;2.15;;;1.00;;
47161;SDS011;32921;53.256;8.198;2022-08-19T12:40:35;2.80;;;1.10;;
47161;SDS011;32921;53.256;8.198;2022-08-19T12:43:01;3.78;;;1.17;;
47161;SDS011;32921;53.256;8.198;2022-08-19T12:45:26;2.67;;;1.10;;
47161;SDS011;32921;53.256;8.198;2022-08-19T12:47:52;4.90;;;1.30;;
47161;SDS011;32921;53.256;8.198;2022-08-19T12:50:18;3.95;;;1.33;;
47161;SDS011;32921;53.256;8.198;2022-08-19T12:52:46;3.13;;;1.42;;
47161;SDS011;32921;53.256;8.198;2022-08-19T12:55:12;4.72;;;1.50;;
47161;SDS011;32921;53.256;8.198;2022-08-19T12:57:37;4.93;;;1.60;;
47161;SDS011;32921;53.256;8.198;2022-08-19T13:02:39;2.92;;;1.30;;
47161;SDS011;32921;53.256;8.198;2022-08-19T13:05:06;6.28;;;1.50;;
47161;SDS011;32921;53.256;8.198;2022-08-19T13:07:33;5.63;;;1.70;;
47161;SDS011;32921;53.256;8.198;2022-08-19T13:09:59;3.72;;;1.63;;
47161;SDS011;32921;53.256;8.198;2022-08-19T13:12:26;5.68;;;1.40;;
47161;SDS011;32921;53.256;8.198;2022-08-19T13:14:52;2.70;;;1.30;;
47161;SDS011;32921;53.256;8.198;2022-08-19T13:17:18;3.50;;;1.33;;
47161;SDS011;32921;53.256;8.198;2022-08-19T13:19:45;6.10;;;1.50;;
47161;SDS011;32921;53.256;8.198;2022-08-19T13:22:11;4.28;;;1.48;;
47161;SDS011;32921;53.256;8.198;2022-08-19T13:24:37;4.85;;;1.42;;
47161;SDS011;32921;53.256;8.198;2022-08-19T13:27:03;4.15;;;1.40;;
47161;SDS011;32921;53.256;8.198;2022-08-19T13:29:28;2.90;;;1.38;;
47161;SDS011;32921;53.256;8.198;2022-08-19T13:32:12;3.67;;;1.30;;
47161;SDS011;32921;53.256;8.198;2022-08-19T13:34:56;4.72;;;2.20;;
47161;SDS011;32921;53.256;8.198;2022-08-19T13:37:22;2.97;;;1.20;;
47161;SDS011;32921;53.256;8.198;2022-08-19T13:40:06;3.10;;;1.15;;
47161;SDS011;32921;53.256;8.198;2022-08-19T13:42:37;4.35;;;1.20;;
47161;SDS011;32921;53.256;8.198;2022-08-19T13:45:04;2.83;;;1.50;;
47161;SDS011;32921;53.256;8.198;2022-08-19T13:47:31;2.67;;;1.20;;
47161;SDS011;32921;53.256;8.198;2022-08-19T13:49:59;4.13;;;1.08;;
47161;SDS011;32921;53.256;8.198;2022-08-19T13:52:25;2.92;;;1.20;;
47161;SDS011;32921;53.256;8.198;2022-08-19T13:54:51;3.33;;;1.30;;
47161;SDS011;32921;53.256;8.198;2022-08-19T13:57:16;2.22;;;1.08;;
47161;SDS011;32921;53.256;8.198;2022-08-19T13:59:42;2.63;;;0.95;;
47161;SDS011;32921;53.256;8.198;2022-08-19T14:02:07;3.03;;;1.00;;
47161;SDS011;32921;53.256;8.198;2022-08-19T14:04:33;2.10;;;1.20;;
47161;SDS011;32921;53.256;8.198;2022-08-19T14:06:58;1.92;;;1.10;;
47161;SDS011;32921;53.256;8.198;2022-08-19T14:09:24;1.63;;;1.20;;
47161;SDS011;32921;53.256;8.198;2022-08-19T14:11:49;2.13;;;1.10;;
47161;SDS011;32921;53.256;8.198;2022-08-19T14:14:16;2.38;;;1.20;;
47161;SDS011;32921;53.256;8.198;2022-08-19T14:16:41;2.50;;;1.10;;
47161;SDS011;32921;53.256;8.198;2022-08-19T14:19:07;2.08;;;1.05;;
47161;SDS011;32921;53.256;8.198;2022-08-19T14:21:33;1.95;;;1.02;;
47161;SDS011;32921;53.256;8.198;2022-08-19T14:24:01;2.45;;;1.30;;
47161;SDS011;32921;53.256;8.198;2022-08-19T14:26:26;5.05;;;1.42;;
47161;SDS011;32921;53.256;8.198;2022-08-19T14:28:52;4.28;;;1.30;;
47161;SDS011;32921;53.256;8.198;2022-08-19T14:31:22;4.15;;;1.38;;
47161;SDS011;32921;53.256;8.198;2022-08-19T14:33:49;1.98;;;1.27;;
47161;SDS011;32921;53.256;8.198;2022-08-19T14:36:15;2.25;;;1.20;;
47161;SDS011;32921;53.256;8.198;2022-08-19T14:38:42;3.97;;;1.27;;
47161;SDS011;32921;53.256;8.198;2022-08-19T14:41:13;6.20;;;1.27;;
47161;SDS011;32921;53.256;8.198;2022-08-19T14:43:42;1.83;;;1.30;;
47161;SDS011;32921;53.256;8.198;2022-08-19T14:46:10;7.00;;;1.50;;
47161;SDS011;32921;53.256;8.198;2022-08-19T14:48:37;2.63;;;1.30;;
47161;SDS011;32921;53.256;8.198;2022-08-19T14:51:03;3.20;;;1.40;;
47161;SDS011;32921;53.256;8.198;2022-08-19T14:53:30;4.03;;;1.60;;
47161;SDS011;32921;53.256;8.198;2022-08-19T14:55:58;2.92;;;1.50;;
47161;SDS011;32921;53.256;8.198;2022-08-19T14:58:23;5.32;;;2.05;;
47161;SDS011;32921;53.256;8.198;2022-08-19T15:00:49;2.95;;;1.20;;
47161;SDS011;32921;53.256;8.198;2022-08-19T15:03:15;2.92;;;1.40;;
47161;SDS011;32921;53.256;8.198;2022-08-19T15:05:40;1.70;;;1.30;;